Northeast Iowa Regional Airport
KCCY : rendu visible

Aérodrome :











RETROUVEZ-NOUS SUR...

 
LOGIN :

S'inscrire | Disclaimer

   EN    FR    IT 

 









Légende :    VFR   VFR Marginal   IFR   IFR Intensif   IFR Très Intensif
Visi : 
Plafond : 
>= 8 km
>= 3000ft
5 à 8 km
1000 à 3000 ft
1500m à 5 km
500 à 1000 ft
800 à 1500m
200 à 500 ft
< 800m
< 200 ft
Symboles :   Orages  Brouillard  Fortes neiges  Fortes précipitations  Vent > 20 kt






- Altitude de l'aérodrome : 1125 ft


KCCY - Northeast Iowa Regional

DERNIER METAR :
  • 290635Z AUTO 19010G15KT 2 1/2SM BR SCT004 BKN009 OVC022 07/07 A2927 RMK AO2

METARs EXPIRÉS :
  • 290615Z AUTO 20012G18KT 10SM SCT013 OVC021 08/07 A2927 RMK AO2
  • 290555Z AUTO 20012KT 10SM SCT019 OVC027 08/07 A2928 RMK AO2
  • 290535Z AUTO 20015KT 10SM BKN026 BKN037 OVC065 09/07 A2928 RMK AO2
  • 290515Z AUTO 21013G21KT 10SM SCT027 BKN038 OVC065 09/08 A2929 RMK AO2
  • 290455Z AUTO 21018KT 10SM SCT019 BKN025 OVC032 10/08 A2929 RMK AO2
  • 290435Z AUTO 20015KT 10SM BKN019 BKN024 OVC039 10/08 A2929 RMK AO2
  • 290415Z AUTO 19019G25KT 10SM BKN025 OVC070 10/08 A2929 RMK AO2
  • 290355Z AUTO 20017KT 10SM SCT029 SCT047 OVC070 10/09 A2929 RMK AO2

TAF N/A



MET'MAP, la Météo Aéronautique d'un coup d'oeil ! - Copyright ORBIFLY Décembre 2007 - Disclaimer

ORBIFLY MET'MAP TEAM :

Programmation & Développement : Alexandra Zaïnal
Sur une idée originale de : Baudouin d'Aumeries
Assistance à la programmation : Marc-Olivier Méhu
Soutien technique & logistique : Manuel Goepfert

Contact : metmap@orbifly.com




SOURCES & CREDITS :

   NOAA       Earth
Advisory